Time;durP1;ratioP1;P1;durP2;ratioP2;P2;SDS_P1;SDS_P2;PMS_P1;PMS_P2;Temp;Humidity;BMP_temperature;BMP_pressure;BME280_temperature;BME280_humidity;BME280_pressure;Samples;Min_cycle;Max_cycle;Signal;HPM_P1;HPM_P2
2022/11/28 00:00:13;;;;;;;;;;;10.20;76.20;;;;;;5086609;28;20331;-81
2022/11/28 00:02:40;;;;;;;;;;;10.20;76.10;;;;;;5059818;28;19912;-81
2022/11/28 00:05:08;;;;;;;;;;;10.20;76.20;;;;;;5064358;28;20043;-81
2022/11/28 00:07:34;;;;;;;;;;;10.20;76.10;;;;;;5069294;28;19912;-81
2022/11/28 00:10:00;;;;;;;;;;;10.20;76.10;;;;;;5052598;28;19923;-82
2022/11/28 00:12:27;;;;;;;;;;;10.20;76.10;;;;;;5060525;28;20323;-81
2022/11/28 00:14:53;;;;;;;;;;;10.20;76.10;;;;;;5085090;28;19968;-82
2022/11/28 00:17:19;;;;;;;;;;;10.20;76.10;;;;;;5077043;28;19920;-82
2022/11/28 00:19:45;;;;;;;;;;;10.20;76.10;;;;;;5087172;28;19969;-84
2022/11/28 00:22:10;;;;;;;;;;;10.20;76.10;;;;;;5073492;28;19995;-82
2022/11/28 00:24:36;;;;;;;;;;;10.20;76.10;;;;;;5072413;28;19923;-81
2022/11/28 00:27:02;;;;;;;;;;;10.20;76.10;;;;;;5088256;28;19912;-81
2022/11/28 00:29:27;;;;;;;;;;;10.20;76.10;;;;;;5058276;28;19962;-81
2022/11/28 00:31:53;;;;;;;;;;;10.20;76.10;;;;;;5065682;28;19962;-81
2022/11/28 00:34:19;;;;;;;;;;;10.30;76.20;;;;;;5095720;28;19928;-80
2022/11/28 00:36:45;;;;;;;;;;;10.20;76.10;;;;;;5056985;28;19927;-81
2022/11/28 00:39:11;;;;;;;;;;;10.20;76.10;;;;;;5086685;28;19931;-82
2022/11/28 00:41:37;;;;;;;;;;;10.20;76.10;;;;;;5080363;28;20289;-81
2022/11/28 00:44:03;;;;;;;;;;;10.30;76.20;;;;;;5080723;28;19926;-79
2022/11/28 00:46:29;;;;;;;;;;;10.30;76.20;;;;;;5080073;28;19920;-81
2022/11/28 00:48:55;;;;;;;;;;;10.20;76.10;;;;;;5061160;28;19916;-81
2022/11/28 00:51:23;;;;;;;;;;;10.20;76.20;;;;;;5077207;28;19920;-81
2022/11/28 00:53:49;;;;;;;;;;;10.20;76.10;;;;;;5082664;28;19927;-81
2022/11/28 00:56:16;;;;;;;;;;;10.30;76.20;;;;;;5082877;28;20006;-81
2022/11/28 00:58:42;;;;;;;;;;;10.20;76.10;;;;;;5061199;28;20360;-83
2022/11/28 01:01:08;;;;;;;;;;;10.20;76.10;;;;;;5087847;28;19923;-82
2022/11/28 01:03:34;;;;;;;;;;;10.30;76.20;;;;;;5077707;28;20275;-82
2022/11/28 01:06:00;;;;;;;;;;;10.30;76.20;;;;;;5065446;28;19971;-81
2022/11/28 01:08:26;;;;;;;;;;;10.30;76.20;;;;;;5071642;28;19916;-82
2022/11/28 01:10:51;;;;;;;;;;;10.30;76.20;;;;;;5073787;28;19966;-81
2022/11/28 01:13:17;;;;;;;;;;;10.30;76.10;;;;;;5058710;28;20007;-82
2022/11/28 01:15:43;;;;;;;;;;;10.30;76.10;;;;;;5078347;28;19960;-81
2022/11/28 01:18:08;;;;;;;;;;;10.30;76.10;;;;;;5061644;28;19931;-82
2022/11/28 01:20:34;;;;;;;;;;;10.30;76.20;;;;;;5061899;28;20387;-81
2022/11/28 01:23:00;;;;;;;;;;;10.30;76.10;;;;;;5058104;28;19912;-82
2022/11/28 01:25:25;;;;;;;;;;;10.30;76.20;;;;;;5092457;28;20322;-81
2022/11/28 01:27:51;;;;;;;;;;;10.30;76.10;;;;;;5064249;28;19916;-81
2022/11/28 01:30:16;;;;;;;;;;;10.30;76.10;;;;;;5084305;28;19918;-81
2022/11/28 01:32:42;;;;;;;;;;;10.30;76.10;;;;;;5030472;28;19926;-83
2022/11/28 01:35:08;;;;;;;;;;;10.30;76.10;;;;;;5059612;28;19928;-81
2022/11/28 01:37:33;;;;;;;;;;;10.30;76.20;;;;;;5073200;28;20555;-81
2022/11/28 01:39:59;;;;;;;;;;;10.30;76.10;;;;;;5093144;28;19920;-81
2022/11/28 01:42:25;;;;;;;;;;;10.30;76.20;;;;;;5075246;28;19920;-81
2022/11/28 01:44:50;;;;;;;;;;;10.30;76.10;;;;;;5083238;28;19912;-83
2022/11/28 01:47:19;;;;;;;;;;;10.30;76.10;;;;;;5060123;28;19920;-83
2022/11/28 01:49:45;;;;;;;;;;;10.30;76.10;;;;;;5079698;28;19999;-82
2022/11/28 01:52:14;;;;;;;;;;;10.30;76.20;;;;;;5062810;28;19927;-82
2022/11/28 01:54:41;;;;;;;;;;;10.30;76.10;;;;;;5089928;28;20357;-81
2022/11/28 01:57:08;;;;;;;;;;;10.30;76.10;;;;;;5092550;28;19912;-81
2022/11/28 01:59:39;;;;;;;;;;;10.30;76.20;;;;;;5051065;28;19931;-82
2022/11/28 02:02:07;;;;;;;;;;;10.30;76.10;;;;;;5050539;28;20365;-81
2022/11/28 02:04:33;;;;;;;;;;;10.30;76.10;;;;;;5054187;28;20387;-82
2022/11/28 02:06:59;;;;;;;;;;;10.30;76.10;;;;;;5058713;28;19916;-81
2022/11/28 02:09:24;;;;;;;;;;;10.30;76.20;;;;;;5062832;28;20283;-81
2022/11/28 02:12:05;;;;;;;;;;;10.30;76.10;;;;;;5047183;28;19924;-81
2022/11/28 02:14:42;;;;;;;;;;;10.30;76.10;;;;;;5077623;28;20300;-82
2022/11/28 02:17:26;;;;;;;;;;;10.30;76.10;;;;;;5079231;28;19912;-82
2022/11/28 02:19:52;;;;;;;;;;;10.40;76.20;;;;;;5093142;28;19913;-82
2022/11/28 02:22:28;;;;;;;;;;;10.30;76.10;;;;;;5074534;28;19919;-81
2022/11/28 02:24:55;;;;;;;;;;;10.40;76.20;;;;;;5051421;28;19912;-84
2022/11/28 02:27:24;;;;;;;;;;;10.40;76.20;;;;;;5068971;28;19916;-81
2022/11/28 02:29:55;;;;;;;;;;;10.40;76.20;;;;;;5052826;28;20086;-81
2022/11/28 02:32:21;;;;;;;;;;;10.40;76.20;;;;;;5070594;28;19973;-81
2022/11/28 02:34:53;;;;;;;;;;;10.40;76.20;;;;;;5065832;28;19920;-82
2022/11/28 02:37:33;;;;;;;;;;;10.40;76.20;;;;;;5086979;28;19919;-84
2022/11/28 02:40:06;;;;;;;;;;;10.40;76.30;;;;;;5087497;28;19927;-83
2022/11/28 02:42:32;;;;;;;;;;;10.40;76.20;;;;;;5072299;28;19951;-82
2022/11/28 02:45:09;;;;;;;;;;;10.40;76.20;;;;;;5067950;28;19964;-82
2022/11/28 02:47:37;;;;;;;;;;;10.40;76.20;;;;;;5057057;28;19919;-81
2022/11/28 02:50:09;;;;;;;;;;;10.40;76.20;;;;;;5073778;28;19912;-81
2022/11/28 02:52:37;;;;;;;;;;;10.40;76.20;;;;;;5074171;28;19924;-81
2022/11/28 02:55:03;;;;;;;;;;;10.40;76.20;;;;;;5056415;28;19916;-81
2022/11/28 02:57:36;;;;;;;;;;;10.40;76.20;;;;;;5054162;28;19965;-83
2022/11/28 03:00:21;;;;;;;;;;;10.40;76.20;;;;;;5091066;28;19965;-81
2022/11/28 03:02:48;;;;;;;;;;;10.40;76.20;;;;;;5048415;28;19917;-81
2022/11/28 03:05:14;;;;;;;;;;;10.40;76.20;;;;;;5069675;28;19916;-81
2022/11/28 03:08:01;;;;;;;;;;;10.40;76.10;;;;;;5071797;28;19912;-81
2022/11/28 03:10:30;;;;;;;;;;;10.40;76.20;;;;;;5072608;28;19912;-81
2022/11/28 03:13:04;;;;;;;;;;;10.40;76.20;;;;;;5064914;28;19928;-81
2022/11/28 03:15:35;;;;;;;;;;;10.40;76.20;;;;;;5068547;28;20360;-82
2022/11/28 03:18:06;;;;;;;;;;;10.50;76.20;;;;;;5068931;28;19936;-82
2022/11/28 03:20:45;;;;;;;;;;;10.50;76.20;;;;;;5059667;28;19916;-81
2022/11/28 03:23:15;;;;;;;;;;;10.50;76.20;;;;;;5061092;28;20369;-81
2022/11/28 03:25:48;;;;;;;;;;;10.50;76.30;;;;;;5056883;28;19913;-83
2022/11/28 03:28:34;;;;;;;;;;;10.50;76.20;;;;;;5062918;28;19962;-81
2022/11/28 03:31:02;;;;;;;;;;;10.50;76.30;;;;;;5074932;28;19916;-81
2022/11/28 03:33:33;;;;;;;;;;;10.50;76.20;;;;;;5071708;28;19923;-84
2022/11/28 03:36:12;;;;;;;;;;;10.50;76.30;;;;;;5069631;28;19920;-82
2022/11/28 03:38:40;;;;;;;;;;;10.50;76.20;;;;;;5089432;28;20007;-81
2022/11/28 03:41:09;;;;;;;;;;;10.50;76.20;;;;;;5087122;28;20413;-81
2022/11/28 03:43:40;;;;;;;;;;;10.50;76.20;;;;;;5071798;28;19916;-81
2022/11/28 03:46:10;;;;;;;;;;;10.50;76.20;;;;;;5067883;28;20383;-84
2022/11/28 03:48:40;;;;;;;;;;;10.50;76.20;;;;;;5056787;28;19969;-81
2022/11/28 03:51:11;;;;;;;;;;;10.50;76.20;;;;;;5055577;28;19932;-81
2022/11/28 03:53:45;;;;;;;;;;;10.50;76.20;;;;;;5073292;28;19916;-81
2022/11/28 03:56:19;;;;;;;;;;;10.50;76.20;;;;;;5067220;28;19912;-82
2022/11/28 03:58:54;;;;;;;;;;;10.50;76.20;;;;;;5070481;28;19916;-82
2022/11/28 04:01:35;;;;;;;;;;;10.50;76.20;;;;;;5091566;28;19965;-81
2022/11/28 04:04:06;;;;;;;;;;;10.50;76.20;;;;;;5076193;28;19920;-83
2022/11/28 04:06:38;;;;;;;;;;;10.50;76.20;;;;;;5065933;28;19940;-82
2022/11/28 04:09:07;;;;;;;;;;;10.50;76.20;;;;;;5096063;28;19912;-80
2022/11/28 04:11:37;;;;;;;;;;;10.50;76.20;;;;;;5058626;28;20396;-85
2022/11/28 04:14:07;;;;;;;;;;;10.50;76.20;;;;;;5076155;28;19916;-84
2022/11/28 04:16:39;;;;;;;;;;;10.60;76.30;;;;;;5062370;28;19944;-82
2022/11/28 04:19:10;;;;;;;;;;;10.50;76.30;;;;;;5083291;28;19916;-81
2022/11/28 04:21:36;;;;;;;;;;;10.50;76.30;;;;;;5067374;28;19961;-81
2022/11/28 04:24:04;;;;;;;;;;;10.50;76.30;;;;;;5093744;28;20317;-85
2022/11/28 04:26:35;;;;;;;;;;;10.60;76.30;;;;;;5052915;28;20331;-82
2022/11/28 04:29:05;;;;;;;;;;;10.60;76.30;;;;;;5077310;28;19912;-81
2022/11/28 04:31:31;;;;;;;;;;;10.60;76.30;;;;;;5076016;28;20380;-81
2022/11/28 04:34:00;;;;;;;;;;;10.60;76.30;;;;;;5077823;28;19916;-83
2022/11/28 04:36:26;;;;;;;;;;;10.60;76.30;;;;;;5096382;28;19962;-82
2022/11/28 04:38:55;;;;;;;;;;;10.60;76.30;;;;;;5076425;28;19931;-82
2022/11/28 04:41:24;;;;;;;;;;;10.60;76.30;;;;;;5071401;28;19961;-81
2022/11/28 04:43:52;;;;;;;;;;;10.60;76.30;;;;;;5078363;28;20054;-81
2022/11/28 04:46:23;;;;;;;;;;;10.60;76.30;;;;;;5066746;28;19909;-81
2022/11/28 04:48:49;;;;;;;;;;;10.60;76.30;;;;;;5078157;28;19918;-81
2022/11/28 04:51:15;;;;;;;;;;;10.60;76.30;;;;;;5079299;28;19919;-81
2022/11/28 04:54:00;;;;;;;;;;;10.60;76.30;;;;;;5074461;28;19916;-80
2022/11/28 04:56:32;;;;;;;;;;;10.60;76.30;;;;;;5069325;28;19919;-81
2022/11/28 04:58:58;;;;;;;;;;;10.60;76.30;;;;;;5077656;28;19920;-82
2022/11/28 05:01:25;;;;;;;;;;;10.70;76.40;;;;;;5072439;28;19916;-81
2022/11/28 05:03:51;;;;;;;;;;;10.60;76.30;;;;;;5063587;28;19947;-81
2022/11/28 05:06:24;;;;;;;;;;;10.60;76.30;;;;;;5071508;28;19967;-81
2022/11/28 05:08:50;;;;;;;;;;;10.60;76.30;;;;;;5088305;28;19920;-83
2022/11/28 05:11:15;;;;;;;;;;;10.70;76.30;;;;;;5077031;28;19969;-81
2022/11/28 05:13:41;;;;;;;;;;;10.70;76.30;;;;;;5071668;28;19920;-82
2022/11/28 05:16:08;;;;;;;;;;;10.70;76.30;;;;;;5044742;28;20430;-82
2022/11/28 05:18:33;;;;;;;;;;;10.70;76.30;;;;;;5096241;28;20022;-81
2022/11/28 05:21:00;;;;;;;;;;;10.70;76.30;;;;;;5059439;28;19916;-83
2022/11/28 05:23:26;;;;;;;;;;;10.70;76.30;;;;;;5064838;28;19916;-81
2022/11/28 05:25:51;;;;;;;;;;;10.70;76.30;;;;;;5057160;28;20338;-81
2022/11/28 05:28:17;;;;;;;;;;;10.70;76.30;;;;;;5067375;28;19920;-81
2022/11/28 05:30:42;;;;;;;;;;;10.70;76.30;;;;;;5062566;28;19920;-83
2022/11/28 05:33:08;;;;;;;;;;;10.70;76.30;;;;;;5084428;28;19920;-81
2022/11/28 05:35:34;;;;;;;;;;;10.70;76.30;;;;;;5072443;28;20377;-81
2022/11/28 05:37:59;;;;;;;;;;;10.70;76.30;;;;;;5049803;28;19917;-84
2022/11/28 05:40:25;;;;;;;;;;;10.70;76.30;;;;;;5068247;28;19923;-82
2022/11/28 05:42:51;;;;;;;;;;;10.70;76.30;;;;;;5052270;28;19916;-83
2022/11/28 05:45:17;;;;;;;;;;;10.70;76.30;;;;;;5076109;28;20356;-80
2022/11/28 05:47:42;;;;;;;;;;;10.70;76.30;;;;;;5036676;28;19916;-80
2022/11/28 05:50:08;;;;;;;;;;;10.70;76.30;;;;;;5069555;28;20013;-80
2022/11/28 05:52:34;;;;;;;;;;;10.70;76.30;;;;;;5075673;28;19977;-81
2022/11/28 05:55:00;;;;;;;;;;;10.70;76.30;;;;;;5055551;28;19916;-80
2022/11/28 05:57:28;;;;;;;;;;;10.70;76.30;;;;;;5071145;28;19923;-80
2022/11/28 05:59:54;;;;;;;;;;;10.70;76.30;;;;;;5058912;28;19923;-81
2022/11/28 06:02:19;;;;;;;;;;;10.70;76.30;;;;;;5069125;28;19913;-81
2022/11/28 06:04:45;;;;;;;;;;;10.70;76.30;;;;;;5068467;28;19920;-80
2022/11/28 06:07:11;;;;;;;;;;;10.70;76.30;;;;;;5064044;28;19919;-80
2022/11/28 06:09:36;;;;;;;;;;;10.70;76.30;;;;;;5054987;28;19924;-80
2022/11/28 06:12:02;;;;;;;;;;;10.80;76.40;;;;;;5052348;28;19921;-80
2022/11/28 06:14:28;;;;;;;;;;;10.80;76.30;;;;;;5052507;28;19931;-79
2022/11/28 06:16:53;;;;;;;;;;;10.70;76.30;;;;;;5041471;28;20007;-80
2022/11/28 06:19:19;;;;;;;;;;;10.70;76.30;;;;;;5071877;28;20395;-79
2022/11/28 06:21:44;;;;;;;;;;;10.80;76.30;;;;;;5054559;28;19927;-80
2022/11/28 06:24:10;;;;;;;;;;;10.70;76.30;;;;;;5065317;28;20733;-78
2022/11/28 06:26:36;;;;;;;;;;;10.80;76.40;;;;;;5063291;28;20316;-80
2022/11/28 06:29:01;;;;;;;;;;;10.80;76.30;;;;;;5070594;28;19951;-79
2022/11/28 06:31:28;;;;;;;;;;;10.80;76.40;;;;;;5069168;28;19922;-79
2022/11/28 06:33:54;;;;;;;;;;;10.80;76.40;;;;;;5074538;28;19912;-80
2022/11/28 06:36:20;;;;;;;;;;;10.80;76.40;;;;;;5070867;28;20000;-79
2022/11/28 06:38:46;;;;;;;;;;;10.80;76.40;;;;;;5052975;28;20328;-78
2022/11/28 06:41:13;;;;;;;;;;;10.80;76.30;;;;;;5058960;28;20368;-80
2022/11/28 06:43:39;;;;;;;;;;;10.80;76.30;;;;;;5067054;28;19935;-79
2022/11/28 06:46:05;;;;;;;;;;;10.80;76.40;;;;;;5069206;28;20288;-79
2022/11/28 06:48:31;;;;;;;;;;;10.80;76.30;;;;;;5075473;28;19942;-79
2022/11/28 06:51:04;;;;;;;;;;;10.80;76.30;;;;;;5049535;28;19916;-79
2022/11/28 06:53:29;;;;;;;;;;;10.80;76.30;;;;;;5062821;28;19916;-79
2022/11/28 06:55:55;;;;;;;;;;;10.80;76.30;;;;;;5070001;28;20754;-79
2022/11/28 06:58:21;;;;;;;;;;;10.80;76.30;;;;;;5076868;28;19923;-79
2022/11/28 07:00:46;;;;;;;;;;;10.80;76.30;;;;;;5065516;28;20296;-78
2022/11/28 07:03:12;;;;;;;;;;;10.80;76.30;;;;;;5076868;28;19916;-81
2022/11/28 07:05:38;;;;;;;;;;;10.80;76.30;;;;;;5045553;28;19920;-80
2022/11/28 07:08:04;;;;;;;;;;;10.80;76.30;;;;;;5056813;28;20285;-78
2022/11/28 07:10:30;;;;;;;;;;;10.80;76.30;;;;;;5088795;28;20365;-79
2022/11/28 07:12:57;;;;;;;;;;;10.80;76.30;;;;;;5078914;28;19920;-79
2022/11/28 07:15:23;;;;;;;;;;;10.80;76.30;;;;;;5065848;28;19917;-80
2022/11/28 07:17:49;;;;;;;;;;;10.80;76.30;;;;;;5075295;28;20360;-80
2022/11/28 07:20:15;;;;;;;;;;;10.80;76.30;;;;;;5084993;28;19951;-81
2022/11/28 07:22:41;;;;;;;;;;;10.80;76.90;;;;;;5090361;28;19912;-80
2022/11/28 07:25:07;;;;;;;;;;;10.90;76.30;;;;;;5060281;28;19913;-80
2022/11/28 07:27:33;;;;;;;;;;;10.90;76.30;;;;;;5053137;28;19916;-80
2022/11/28 07:29:58;;;;;;;;;;;10.90;76.30;;;;;;5080087;28;20298;-80
2022/11/28 07:32:24;;;;;;;;;;;10.80;76.30;;;;;;5073097;28;19920;-80
2022/11/28 07:34:49;;;;;;;;;;;10.80;76.90;;;;;;5077482;28;19928;-81
2022/11/28 07:37:15;;;;;;;;;;;10.90;76.30;;;;;;5060949;28;20095;-81
2022/11/28 07:39:43;;;;;;;;;;;10.90;76.30;;;;;;5055322;28;20270;-80
2022/11/28 07:42:09;;;;;;;;;;;10.90;76.30;;;;;;5057881;28;19955;-81
2022/11/28 07:44:34;;;;;;;;;;;10.90;76.30;;;;;;5069073;28;20563;-81
2022/11/28 07:47:00;;;;;;;;;;;10.90;76.30;;;;;;5061991;28;20003;-81
2022/11/28 07:49:26;;;;;;;;;;;10.90;76.30;;;;;;5056619;28;19929;-80
2022/11/28 07:51:51;;;;;;;;;;;10.90;76.30;;;;;;5063852;28;19923;-81
2022/11/28 07:54:17;;;;;;;;;;;10.90;76.30;;;;;;5074357;28;19924;-82
2022/11/28 07:56:43;;;;;;;;;;;10.90;76.30;;;;;;5073419;28;20372;-81
2022/11/28 07:59:08;;;;;;;;;;;10.90;76.30;;;;;;5037365;28;19916;-83
2022/11/28 08:01:34;;;;;;;;;;;10.90;76.30;;;;;;5073183;28;20188;-83
2022/11/28 08:04:00;;;;;;;;;;;10.90;76.30;;;;;;5057766;28;19972;-80
2022/11/28 08:06:27;;;;;;;;;;;10.90;76.30;;;;;;5066691;28;19973;-77
2022/11/28 08:08:53;;;;;;;;;;;10.90;76.30;;;;;;5071472;28;19973;-79
2022/11/28 08:11:20;;;;;;;;;;;10.90;76.30;;;;;;5055490;28;19939;-83
2022/11/28 08:13:46;;;;;;;;;;;10.90;76.90;;;;;;5053614;28;20464;-81
2022/11/28 08:16:13;;;;;;;;;;;10.90;76.30;;;;;;5074712;28;20029;-80
2022/11/28 08:18:39;;;;;;;;;;;10.90;76.30;;;;;;5056061;28;19962;-80
2022/11/28 08:21:15;;;;;;;;;;;10.90;76.30;;;;;;5089998;28;19924;-79
2022/11/28 08:23:42;;;;;;;;;;;10.90;76.30;;;;;;5071451;28;19951;-79
2022/11/28 08:26:09;;;;;;;;;;;10.90;76.30;;;;;;5056967;28;19912;-80
2022/11/28 08:28:35;;;;;;;;;;;10.90;76.30;;;;;;5069646;28;19920;-80
2022/11/28 08:31:27;;;;;;;;;;;10.90;76.30;;;;;;5068246;28;20031;-78
2022/11/28 08:33:53;;;;;;;;;;;10.90;76.30;;;;;;5072057;28;19917;-79
2022/11/28 08:36:20;;;;;;;;;;;11.00;76.30;;;;;;5052445;28;19913;-79
2022/11/28 08:38:46;;;;;;;;;;;11.00;76.30;;;;;;5071566;28;20003;-79
2022/11/28 08:41:13;;;;;;;;;;;11.00;76.30;;;;;;5049382;28;20403;-79
2022/11/28 08:43:39;;;;;;;;;;;11.00;76.30;;;;;;5070354;28;19912;-80
2022/11/28 08:46:07;;;;;;;;;;;11.00;76.30;;;;;;5066993;28;20619;-81
2022/11/28 08:48:33;;;;;;;;;;;11.00;76.30;;;;;;5056490;28;20365;-79
2022/11/28 08:50:59;;;;;;;;;;;11.00;76.30;;;;;;5063660;28;20360;-79
2022/11/28 08:53:25;;;;;;;;;;;11.00;76.30;;;;;;5079342;28;20018;-80
2022/11/28 08:55:50;;;;;;;;;;;11.00;76.30;;;;;;5054714;28;19960;-78
2022/11/28 08:58:16;;;;;;;;;;;11.00;76.30;;;;;;5077122;28;19918;-79
2022/11/28 09:00:41;;;;;;;;;;;11.00;76.30;;;;;;5075836;28;19976;-79
2022/11/28 09:03:10;;;;;;;;;;;11.00;76.30;;;;;;5073963;28;19919;-79
2022/11/28 09:05:36;;;;;;;;;;;11.00;76.30;;;;;;5080819;28;20041;-79
2022/11/28 09:08:01;;;;;;;;;;;11.00;76.30;;;;;;5064762;28;20345;-80
2022/11/28 09:10:27;;;;;;;;;;;11.00;76.30;;;;;;5077636;28;19916;-79
2022/11/28 09:12:53;;;;;;;;;;;11.00;76.30;;;;;;5049006;28;20007;-79
2022/11/28 09:15:18;;;;;;;;;;;11.00;76.30;;;;;;5075484;28;19973;-79
2022/11/28 09:17:44;;;;;;;;;;;11.00;76.30;;;;;;5081502;28;19998;-79
2022/11/28 09:20:10;;;;;;;;;;;11.00;76.30;;;;;;5078821;28;19916;-79
2022/11/28 09:22:36;;;;;;;;;;;11.00;76.30;;;;;;5074189;28;19912;-79
2022/11/28 09:25:02;;;;;;;;;;;11.00;76.30;;;;;;5072494;28;19995;-79
2022/11/28 09:27:27;;;;;;;;;;;11.00;76.30;;;;;;5059286;28;19999;-81
2022/11/28 09:29:53;;;;;;;;;;;11.00;76.30;;;;;;5075379;28;20088;-79
2022/11/28 09:32:19;;;;;;;;;;;11.00;76.30;;;;;;5048282;28;19927;-80
2022/11/28 09:34:44;;;;;;;;;;;11.00;76.30;;;;;;5073701;28;20185;-79
2022/11/28 09:37:10;;;;;;;;;;;11.10;76.30;;;;;;5060737;28;19966;-82
2022/11/28 09:39:35;;;;;;;;;;;11.00;76.30;;;;;;5060988;28;20018;-80
2022/11/28 09:42:04;;;;;;;;;;;11.00;76.30;;;;;;5052549;28;19922;-79
2022/11/28 09:44:46;;;;;;;;;;;11.10;76.30;;;;;;5073574;28;19913;-80
2022/11/28 09:47:22;;;;;;;;;;;11.10;76.30;;;;;;5054716;28;19920;-81
2022/11/28 09:49:52;;;;;;;;;;;11.10;76.30;;;;;;5075311;28;20376;-79
2022/11/28 09:52:21;;;;;;;;;;;11.10;76.30;;;;;;5072870;28;19916;-79
2022/11/28 09:54:47;;;;;;;;;;;11.10;76.30;;;;;;5069419;28;20438;-79
2022/11/28 09:57:16;;;;;;;;;;;11.10;76.30;;;;;;5073487;28;19955;-78
2022/11/28 09:59:42;;;;;;;;;;;11.10;76.30;;;;;;5059274;28;20000;-81
2022/11/28 10:02:18;;;;;;;;;;;11.10;76.30;;;;;;5059546;28;19958;-79
2022/11/28 10:04:48;;;;;;;;;;;11.10;76.30;;;;;;5094413;28;20141;-79
2022/11/28 10:07:20;;;;;;;;;;;11.10;76.30;;;;;;5072768;28;19912;-80
2022/11/28 10:09:55;;;;;;;;;;;11.10;76.30;;;;;;5089701;28;19912;-80
2022/11/28 10:12:25;;;;;;;;;;;11.10;76.30;;;;;;5077169;28;19916;-79
2022/11/28 10:14:54;;;;;;;;;;;11.10;76.30;;;;;;5077958;28;19922;-81
2022/11/28 10:17:40;;;;;;;;;;;11.10;76.30;;;;;;5079442;28;19942;-81
2022/11/28 10:20:08;;;;;;;;;;;11.20;76.30;;;;;;5084115;28;20014;-81
2022/11/28 10:22:39;;;;;;;;;;;11.10;76.30;;;;;;5077180;28;20012;-82
2022/11/28 10:25:12;;;;;;;;;;;11.10;76.30;;;;;;5094784;28;19913;-82
2022/11/28 10:27:39;;;;;;;;;;;11.10;76.30;;;;;;5073418;28;19919;-82
2022/11/28 10:30:07;;;;;;;;;;;11.20;76.30;;;;;;5076035;28;20385;-81
2022/11/28 10:32:41;;;;;;;;;;;11.20;77.00;;;;;;5081198;28;20376;-80
2022/11/28 10:35:19;;;;;;;;;;;11.20;76.30;;;;;;5080028;28;19923;-80
2022/11/28 10:37:51;;;;;;;;;;;11.20;76.30;;;;;;5048151;28;19916;-80
2022/11/28 10:40:22;;;;;;;;;;;11.20;76.20;;;;;;5056655;28;19920;-80
2022/11/28 10:42:54;;;;;;;;;;;11.20;76.30;;;;;;5059521;28;20367;-79
2022/11/28 10:45:43;;;;;;;;;;;11.20;76.20;;;;;;5062830;28;19912;-80
2022/11/28 10:48:21;;;;;;;;;;;11.20;76.20;;;;;;5027368;28;19912;-81
2022/11/28 10:50:50;;;;;;;;;;;11.20;76.20;;;;;;5091855;28;19919;-82
2022/11/28 10:53:16;;;;;;;;;;;11.20;76.20;;;;;;5088874;28;19975;-80
2022/11/28 10:55:54;;;;;;;;;;;11.20;76.20;;;;;;5067328;28;19943;-82
2022/11/28 10:58:22;;;;;;;;;;;11.30;76.30;;;;;;5066382;28;19995;-81
2022/11/28 11:00:50;;;;;;;;;;;11.30;76.20;;;;;;5071353;28;19937;-81
2022/11/28 11:03:17;;;;;;;;;;;11.30;76.30;;;;;;5068327;28;19920;-81
2022/11/28 11:05:42;;;;;;;;;;;11.30;76.20;;;;;;5070317;28;19936;-81
2022/11/28 11:08:18;;;;;;;;;;;11.30;76.20;;;;;;5074360;28;19913;-83
2022/11/28 11:10:48;;;;;;;;;;;11.30;76.20;;;;;;5066590;28;19913;-82
2022/11/28 11:13:18;;;;;;;;;;;11.30;76.20;;;;;;5088523;28;20020;-80
2022/11/28 11:15:45;;;;;;;;;;;11.30;76.20;;;;;;5083664;28;19916;-82
2022/11/28 11:18:25;;;;;;;;;;;11.30;76.20;;;;;;5057762;28;19916;-80
2022/11/28 11:20:51;;;;;;;;;;;11.40;76.20;;;;;;5055392;28;19927;-80
2022/11/28 11:23:18;;;;;;;;;;;11.30;76.20;;;;;;5060809;28;19917;-82
2022/11/28 11:25:49;;;;;;;;;;;11.30;76.10;;;;;;5087678;28;19912;-81
2022/11/28 11:28:25;;;;;;;;;;;11.40;76.20;;;;;;5060748;28;19927;-81
2022/11/28 11:31:01;;;;;;;;;;;11.40;76.20;;;;;;5070018;28;19966;-82
2022/11/28 11:33:34;;;;;;;;;;;11.40;76.20;;;;;;5064075;28;19973;-82
2022/11/28 11:36:01;;;;;;;;;;;11.40;76.10;;;;;;5072922;28;19912;-82
2022/11/28 11:38:28;;;;;;;;;;;11.40;76.10;;;;;;5063312;28;19921;-82
2022/11/28 11:40:54;;;;;;;;;;;11.40;76.10;;;;;;5075890;28;20427;-81
2022/11/28 11:43:22;;;;;;;;;;;11.40;76.10;;;;;;5073426;28;19920;-83
2022/11/28 11:46:02;;;;;;;;;;;11.40;76.10;;;;;;5056218;28;19951;-80
2022/11/28 11:48:47;;;;;;;;;;;11.40;76.70;;;;;;5056575;28;19912;-82
2022/11/28 11:51:31;;;;;;;;;;;11.50;76.10;;;;;;5069129;28;19912;-81
2022/11/28 11:54:05;;;;;;;;;;;11.50;76.10;;;;;;5058606;28;20372;-84
2022/11/28 11:56:34;;;;;;;;;;;11.50;76.10;;;;;;5069020;28;19913;-80
2022/11/28 11:59:00;;;;;;;;;;;11.50;76.10;;;;;;5079552;28;19912;-81
2022/11/28 12:01:27;;;;;;;;;;;11.50;76.10;;;;;;5065748;28;19920;-82
2022/11/28 12:03:52;;;;;;;;;;;11.50;76.10;;;;;;5056132;28;19916;-81
2022/11/28 12:06:38;;;;;;;;;;;11.50;76.10;;;;;;5065160;28;19962;-82
2022/11/28 12:09:12;;;;;;;;;;;11.50;76.10;;;;;;5063759;28;20428;-80
2022/11/28 12:11:40;;;;;;;;;;;11.50;76.10;;;;;;5080305;28;19920;-83
2022/11/28 12:14:22;;;;;;;;;;;11.50;76.10;;;;;;5076383;28;19984;-84
2022/11/28 12:16:58;;;;;;;;;;;11.50;76.10;;;;;;5069940;28;19920;-81
2022/11/28 12:19:24;;;;;;;;;;;11.50;76.10;;;;;;5073552;28;20019;-81
2022/11/28 12:21:56;;;;;;;;;;;11.50;76.00;;;;;;5073293;28;20010;-81
2022/11/28 12:24:29;;;;;;;;;;;11.60;76.10;;;;;;5077001;28;19913;-81
2022/11/28 12:27:10;;;;;;;;;;;11.60;76.10;;;;;;5069242;28;20965;-81
2022/11/28 12:29:56;;;;;;;;;;;11.60;76.10;;;;;;5058578;28;19927;-82
2022/11/28 12:32:39;;;;;;;;;;;11.60;76.10;;;;;;5071062;28;19916;-83
2022/11/28 12:35:11;;;;;;;;;;;11.60;76.00;;;;;;5077880;28;19916;-81
2022/11/28 12:37:44;;;;;;;;;;;11.60;76.00;;;;;;5059541;28;19922;-81
2022/11/28 12:40:17;;;;;;;;;;;11.60;76.00;;;;;;5079612;28;19956;-81
2022/11/28 12:42:58;;;;;;;;;;;11.60;76.00;;;;;;5066219;28;20368;-81
2022/11/28 12:45:37;;;;;;;;;;;11.60;76.00;;;;;;5072602;28;19913;-81
2022/11/28 12:48:03;;;;;;;;;;;11.60;76.00;;;;;;5068565;28;19942;-82
2022/11/28 12:50:28;;;;;;;;;;;11.60;76.00;;;;;;5092542;28;19995;-82
2022/11/28 12:53:03;;;;;;;;;;;11.70;76.00;;;;;;5073794;28;20288;-81
2022/11/28 12:55:28;;;;;;;;;;;11.60;76.00;;;;;;5062056;28;19916;-81
2022/11/28 12:58:00;;;;;;;;;;;11.70;76.00;;;;;;5087284;28;20406;-82
2022/11/28 13:00:26;;;;;;;;;;;11.70;76.00;;;;;;5058425;28;19916;-82
2022/11/28 13:03:15;;;;;;;;;;;11.70;76.00;;;;;;5076584;28;19922;-80
2022/11/28 13:05:46;;;;;;;;;;;11.70;76.00;;;;;;5055079;28;19912;-80
2022/11/28 13:08:21;;;;;;;;;;;11.70;76.00;;;;;;5072298;28;19912;-81
2022/11/28 13:11:09;;;;;;;;;;;11.70;76.00;;;;;;5094339;28;19913;-80
2022/11/28 13:13:38;;;;;;;;;;;11.70;76.00;;;;;;5060253;28;19916;-81
2022/11/28 13:16:14;;;;;;;;;;;11.70;76.00;;;;;;5084425;28;19918;-83
2022/11/28 13:18:45;;;;;;;;;;;11.70;76.00;;;;;;5068906;28;19908;-80
2022/11/28 13:21:17;;;;;;;;;;;11.70;76.00;;;;;;5075042;28;19920;-80
2022/11/28 13:23:50;;;;;;;;;;;11.80;76.00;;;;;;5075647;28;19912;-81
2022/11/28 13:26:30;;;;;;;;;;;11.80;76.00;;;;;;5055647;28;19959;-81
2022/11/28 13:29:05;;;;;;;;;;;11.80;76.00;;;;;;5080597;28;19912;-81
2022/11/28 13:31:36;;;;;;;;;;;11.80;76.00;;;;;;5080590;28;19924;-80
2022/11/28 13:34:02;;;;;;;;;;;11.80;76.00;;;;;;5072614;28;20304;-80
2022/11/28 13:36:28;;;;;;;;;;;11.80;76.00;;;;;;5096096;28;19912;-80
2022/11/28 13:38:53;;;;;;;;;;;11.80;76.00;;;;;;5091648;28;20061;-82
2022/11/28 13:41:19;;;;;;;;;;;11.80;76.00;;;;;;5071173;28;19951;-81
2022/11/28 13:44:02;;;;;;;;;;;11.80;76.00;;;;;;5079291;28;20499;-80
2022/11/28 13:46:29;;;;;;;;;;;11.80;76.00;;;;;;5071919;28;19912;-81
2022/11/28 13:48:58;;;;;;;;;;;11.80;76.00;;;;;;5081725;28;19920;-80
2022/11/28 13:51:25;;;;;;;;;;;11.90;76.00;;;;;;5082226;28;20112;-80
2022/11/28 13:54:17;;;;;;;;;;;11.90;76.00;;;;;;5062004;28;19965;-80
2022/11/28 13:56:47;;;;;;;;;;;11.80;76.00;;;;;;5032854;28;19920;-82
2022/11/28 13:59:18;;;;;;;;;;;11.90;76.00;;;;;;5095304;28;19924;-80
2022/11/28 14:01:44;;;;;;;;;;;11.90;76.00;;;;;;5083875;28;19916;-82
2022/11/28 14:04:15;;;;;;;;;;;11.90;76.00;;;;;;5093671;28;20280;-80
2022/11/28 14:06:44;;;;;;;;;;;11.90;75.90;;;;;;5060587;28;20275;-82
2022/11/28 14:09:12;;;;;;;;;;;11.90;75.90;;;;;;5090218;28;19935;-80
2022/11/28 14:11:45;;;;;;;;;;;11.90;75.90;;;;;;5061947;28;19939;-81
2022/11/28 14:14:13;;;;;;;;;;;11.90;75.90;;;;;;5075484;28;19916;-81
2022/11/28 14:16:50;;;;;;;;;;;11.90;75.90;;;;;;5086558;28;19916;-80
2022/11/28 14:19:34;;;;;;;;;;;11.90;75.90;;;;;;5064467;28;20013;-81
2022/11/28 14:22:19;;;;;;;;;;;11.90;75.90;;;;;;5060951;28;19919;-81
2022/11/28 14:25:03;;;;;;;;;;;12.00;76.00;;;;;;5083612;28;19962;-81
2022/11/28 14:27:34;;;;;;;;;;;11.90;75.90;;;;;;5059787;28;20273;-80